Time;durP1;ratioP1;P1;durP2;ratioP2;P2;SDS_P1;SDS_P2;PMS_P1;PMS_P2;Temp;Humidity;BMP_temperature;BMP_pressure;BME280_temperature;BME280_humidity;BME280_pressure;Samples;Min_cycle;Max_cycle;Signal;HPM_P1;HPM_P2
2022/09/27 00:01:09;;;;;;;1.30;1.20;;;;;;;10.05;100.00;98455.97;4884099;29;20049;-69
2022/09/27 00:03:36;;;;;;;1.98;1.75;;;;;;;9.78;100.00;98413.91;4881603;29;20124;-69
2022/09/27 00:06:07;;;;;;;2.50;1.35;;;;;;;10.06;100.00;98448.88;4882138;29;20061;-70
2022/09/27 00:08:34;;;;;;;;;;;;;;;10.08;100.00;98442.47;4882747;29;20091;-72
2022/09/27 00:11:03;;;;;;;2.53;1.20;;;;;;;9.94;100.00;98433.91;4881064;29;19934;-73
2022/09/27 00:13:30;;;;;;;1.27;1.13;;;;;;;9.90;100.00;98430.69;4884754;29;20086;-70
2022/09/27 00:15:59;;;;;;;1.50;1.33;;;;;;;10.01;100.00;98445.72;4882447;29;20057;-73
2022/09/27 00:18:26;;;;;;;1.80;1.30;;;;;;;10.09;100.00;98449.47;4891022;29;20557;-71
2022/09/27 00:20:53;;;;;;;1.52;1.40;;;;;;;10.16;100.00;98445.41;4892146;29;20151;-71
2022/09/27 00:23:19;;;;;;;1.67;1.10;;;;;;;10.21;100.00;98442.44;4883988;29;20537;-70
2022/09/27 00:25:59;;;;;;;1.27;1.17;;;;;;;10.25;100.00;98449.16;4890331;29;20064;-72
2022/09/27 00:28:26;;;;;;;1.45;1.17;;;;;;;10.25;100.00;98438.59;4892805;29;20766;-72
2022/09/27 00:30:53;;;;;;;1.20;1.10;;;;;;;10.27;100.00;98441.97;4894238;29;20278;-71
2022/09/27 00:33:19;;;;;;;1.50;1.05;;;;;;;10.24;100.00;98442.19;4890534;29;20045;-72
2022/09/27 00:35:46;;;;;;;1.33;1.00;;;;;;;10.22;100.00;98435.34;4886163;29;20415;-71
2022/09/27 00:38:13;;;;;;;1.08;0.95;;;;;;;10.13;100.00;98435.06;4890908;29;20065;-73
2022/09/27 00:40:41;;;;;;;1.20;1.10;;;;;;;10.04;100.00;98429.63;4888641;29;20061;-72
2022/09/27 00:43:20;;;;;;;1.92;1.13;;;;;;;10.13;100.00;98439.50;4885566;29;20431;-71
2022/09/27 00:46:00;;;;;;;2.67;1.33;;;;;;;10.15;100.00;98429.66;4889879;29;20399;-72
2022/09/27 00:48:30;;;;;;;1.15;1.05;;;;;;;10.01;100.00;98390.19;4884696;29;20056;-74
2022/09/27 00:51:00;;;;;;;1.40;1.10;;;;;;;10.23;100.00;98423.81;4887291;29;20067;-73
2022/09/27 00:53:32;;;;;;;3.05;0.90;;;;;;;10.24;100.00;98417.53;4886640;29;20055;-71
2022/09/27 00:56:09;;;;;;;1.10;1.00;;;;;;;10.16;100.00;98399.59;4887296;29;20131;-70
2022/09/27 00:58:42;;;;;;;1.30;0.95;;;;;;;10.21;100.00;98423.94;4888190;29;20060;-73
2022/09/27 01:01:09;;;;;;;1.15;0.90;;;;;;;10.20;100.00;98424.91;4892345;29;20077;-72
2022/09/27 01:03:44;;;;;;;1.80;1.10;;;;;;;10.03;100.00;98394.41;4889088;29;20052;-72
2022/09/27 01:06:12;;;;;;;1.52;1.00;;;;;;;10.16;100.00;98421.59;4890511;29;20057;-71
2022/09/27 01:08:39;;;;;;;1.30;1.13;;;;;;;10.14;100.00;98417.38;4871083;29;20053;-73
2022/09/27 01:11:39;;;;;;;2.40;1.00;;;;;;;10.12;100.00;98417.50;4885510;29;20113;-74
2022/09/27 01:14:33;;;;;;;1.25;1.10;;;;;;;10.18;100.00;98408.25;4888821;29;20059;-72
2022/09/27 01:17:30;;;;;;;1.00;1.00;;;;;;;10.23;100.00;98415.88;4886633;29;20066;-73
2022/09/27 01:20:24;;;;;;;1.63;1.20;;;;;;;10.21;100.00;98408.06;4887693;29;20053;-73
2022/09/27 01:23:17;;;;;;;0.90;0.90;;;;;;;10.28;100.00;98419.00;4881290;29;20064;-74
2022/09/27 01:26:02;;;;;;;1.15;0.90;;;;;;;10.32;100.00;98404.59;4883215;29;20055;-71
2022/09/27 01:28:52;;;;;;;0.70;0.70;;;;;;;10.32;100.00;98410.72;4892931;29;20063;-72
2022/09/27 01:31:24;;;;;;;2.10;0.80;;;;;;;10.33;100.00;98398.31;4891210;29;20083;-73
2022/09/27 01:34:10;;;;;;;0.80;0.80;;;;;;;10.16;100.00;98387.22;4881883;29;20876;-73
2022/09/27 01:36:51;;;;;;;3.67;1.02;;;;;;;10.05;100.00;98375.78;4885320;29;20044;-74
2022/09/27 01:39:18;;;;;;;1.08;0.73;;;;;;;10.21;100.00;98402.78;4891380;29;20141;-74
2022/09/27 01:42:01;;;;;;;1.45;0.90;;;;;;;10.16;100.00;98392.50;4889638;29;20056;-72
2022/09/27 01:44:42;;;;;;;1.15;1.05;;;;;;;10.19;100.00;98405.53;4869850;29;20056;-73
2022/09/27 01:47:22;;;;;;;1.77;0.90;;;;;;;10.12;100.00;98372.53;4883373;29;20064;-72
2022/09/27 01:50:15;;;;;;;2.42;1.00;;;;;;;10.29;100.00;98407.47;4885157;29;20055;-73
2022/09/27 01:52:49;;;;;;;2.78;1.17;;;;;;;10.31;100.00;98402.91;4878460;29;20052;-74
2022/09/27 01:55:19;;;;;;;1.45;1.17;;;;;;;10.30;100.00;98396.75;4888420;29;20060;-72
2022/09/27 01:57:53;;;;;;;3.00;0.90;;;;;;;10.36;100.00;98398.09;4886377;29;20049;-75
2022/09/27 02:00:20;;;;;;;2.20;1.10;;;;;;;10.39;100.00;98397.88;4890952;29;20084;-72
2022/09/27 02:02:54;;;;;;;1.35;0.90;;;;;;;10.25;100.00;98371.63;4890552;29;20055;-73
2022/09/27 02:05:25;;;;;;;1.08;0.95;;;;;;;10.35;100.00;98391.97;4884017;29;20152;-74
2022/09/27 02:07:56;;;;;;;2.63;1.00;;;;;;;10.41;100.00;98402.06;4886590;29;20056;-73
2022/09/27 02:10:29;;;;;;;1.60;0.82;;;;;;;10.35;100.00;98399.06;4881906;29;20061;-73
2022/09/27 02:13:16;;;;;;;2.20;1.00;;;;;;;10.32;100.00;98400.13;4889968;29;20049;-72
2022/09/27 02:16:01;;;;;;;0.90;0.90;;;;;;;10.27;100.00;98394.34;4884160;29;20056;-71
2022/09/27 02:18:35;;;;;;;2.58;0.90;;;;;;;10.19;100.00;98392.31;4888447;29;20467;-73
2022/09/27 02:21:06;;;;;;;3.88;1.40;;;;;;;10.25;100.00;98401.56;4885356;29;20057;-75
2022/09/27 02:23:40;;;;;;;2.97;1.38;;;;;;;10.30;100.00;98393.28;4890077;29;20136;-72
2022/09/27 02:26:34;;;;;;;2.30;1.20;;;;;;;10.28;100.00;98403.13;4884331;29;20051;-74
2022/09/27 02:29:09;;;;;;;1.10;1.00;;;;;;;10.26;100.00;98394.47;4890606;29;20056;-71
2022/09/27 02:31:36;;;;;;;3.08;1.00;;;;;;;10.31;100.00;98405.53;4890960;29;20057;-75
2022/09/27 02:34:22;;;;;;;1.30;1.10;;;;;;;10.36;100.00;98403.38;4884217;29;20063;-74
2022/09/27 02:36:52;;;;;;;2.85;1.40;;;;;;;10.34;100.00;98394.72;4889450;29;20055;-75
2022/09/27 02:39:20;;;;;;;1.50;1.05;;;;;;;10.31;100.00;98397.59;4884626;29;20045;-74
2022/09/27 02:41:47;;;;;;;1.77;1.30;;;;;;;10.31;100.00;98402.91;4886943;29;20139;-74
2022/09/27 02:44:16;;;;;;;3.28;1.33;;;;;;;10.33;100.00;98408.91;4877960;29;20148;-75
2022/09/27 02:47:07;;;;;;;4.93;1.45;;;;;;;10.33;100.00;98407.09;4884609;29;20515;-74
2022/09/27 02:49:58;;;;;;;;;;;;;;;10.33;100.00;98412.41;4885245;29;20049;-75
2022/09/27 02:52:44;;;;;;;3.40;1.77;;;;;;;10.26;100.00;98407.69;4885003;29;19923;-72
2022/09/27 02:55:30;;;;;;;2.28;1.60;;;;;;;10.18;100.00;98416.19;4889472;29;20136;-72
2022/09/27 02:58:26;;;;;;;3.95;1.95;;;;;;;10.23;100.00;98413.25;4889402;29;20055;-73
2022/09/27 03:01:07;;;;;;;3.20;1.60;;;;;;;10.13;100.00;98415.69;4880209;29;20087;-73
2022/09/27 03:04:02;;;;;;;4.97;2.20;;;;;;;10.17;100.00;98425.09;4889368;29;20063;-73
2022/09/27 03:06:31;;;;;;;4.55;2.00;;;;;;;10.22;100.00;98422.13;4889328;29;20070;-71
2022/09/27 03:08:58;;;;;;;8.13;2.08;;;;;;;10.21;100.00;98417.81;4885460;29;20056;-74
2022/09/27 03:11:24;;;;;;;3.97;1.85;;;;;;;10.19;100.00;98421.41;4882217;29;20053;-72
2022/09/27 03:13:51;;;;;;;5.07;1.98;;;;;;;10.13;100.00;98421.84;4884893;29;20067;-72
2022/09/27 03:16:34;;;;;;;4.63;1.80;;;;;;;10.07;100.00;98424.94;4890528;29;20131;-72
2022/09/27 03:19:00;;;;;;;4.45;2.20;;;;;;;10.06;100.00;98433.84;4883575;29;20057;-73
2022/09/27 03:21:28;;;;;;;7.10;2.13;;;;;;;10.01;100.00;98445.72;4887038;29;20057;-75
2022/09/27 03:23:54;;;;;;;3.63;2.05;;;;;;;10.02;100.00;98444.78;4884005;29;20072;-70
2022/09/27 03:26:21;;;;;;;7.65;2.20;;;;;;;9.89;100.00;98425.50;4888679;29;20049;-74
2022/09/27 03:28:47;;;;;;;4.28;1.75;;;;;;;10.01;100.00;98453.66;4890955;29;20055;-69
2022/09/27 03:31:14;;;;;;;4.25;1.83;;;;;;;9.97;100.00;98460.13;4885866;29;20395;-71
2022/09/27 03:33:40;;;;;;;3.80;1.55;;;;;;;9.93;100.00;98459.50;4892255;29;20064;-74
2022/09/27 03:36:07;;;;;;;2.25;1.20;;;;;;;9.85;100.00;98459.25;4880782;29;20045;-73
2022/09/27 03:38:33;;;;;;;5.78;1.77;;;;;;;9.80;100.00;98462.22;4893370;29;20067;-73
2022/09/27 03:41:00;;;;;;;5.97;1.50;;;;;;;9.53;100.00;98419.34;4889627;29;20068;-75
2022/09/27 03:43:27;;;;;;;2.97;1.23;;;;;;;9.74;100.00;98467.16;4881941;29;20472;-71
2022/09/27 03:45:53;;;;;;;3.45;1.45;;;;;;;9.65;100.00;98459.88;4889323;29;20087;-71
2022/09/27 03:48:20;;;;;;;1.95;1.10;;;;;;;9.66;100.00;98470.34;4883593;29;20143;-73
2022/09/27 03:50:53;;;;;;;2.58;0.93;;;;;;;9.60;100.00;98476.06;4889377;29;20056;-73
2022/09/27 03:53:19;;;;;;;2.78;0.80;;;;;;;9.55;100.00;98483.50;4884586;29;20062;-72
2022/09/27 03:55:46;;;;;;;1.48;0.80;;;;;;;9.61;100.00;98482.19;4894705;29;20053;-71
2022/09/27 03:58:13;;;;;;;2.03;1.00;;;;;;;9.35;100.00;98452.41;4891645;29;20045;-71
2022/09/27 04:00:40;;;;;;;1.50;0.82;;;;;;;9.48;100.00;98482.25;4890417;29;20113;-74
2022/09/27 04:03:06;;;;;;;2.08;1.10;;;;;;;9.46;100.00;98481.50;4893184;29;20048;-71
2022/09/27 04:05:33;;;;;;;2.95;0.93;;;;;;;9.43;100.00;98490.53;4887361;29;20151;-75
2022/09/27 04:07:59;;;;;;;2.92;1.10;;;;;;;9.32;100.00;98476.41;4892418;29;20115;-73
2022/09/27 04:10:26;;;;;;;1.83;1.10;;;;;;;9.38;100.00;98499.75;4896915;29;20451;-74
2022/09/27 04:12:53;;;;;;;1.95;1.13;;;;;;;9.28;100.00;98482.88;4895520;29;20053;-73
2022/09/27 04:15:20;;;;;;;1.10;1.00;;;;;;;9.31;100.00;98496.69;4886680;29;20049;-69
2022/09/27 04:17:46;;;;;;;1.50;0.88;;;;;;;9.18;100.00;98477.38;4892021;29;20139;-72
2022/09/27 04:20:13;;;;;;;3.63;0.70;;;;;;;9.22;100.00;98486.78;4892277;29;20495;-70
2022/09/27 04:22:40;;;;;;;1.13;0.60;;;;;;;9.24;100.00;98495.44;4886088;29;20053;-69
2022/09/27 04:25:08;;;;;;;0.98;0.80;;;;;;;9.24;100.00;98499.88;4889886;29;20055;-72
2022/09/27 04:27:35;;;;;;;6.15;1.23;;;;;;;9.15;100.00;98493.44;4891366;29;20057;-71
2022/09/27 04:30:03;;;;;;;1.13;1.00;;;;;;;9.20;100.00;98512.47;4893676;29;20054;-69
2022/09/27 04:32:29;;;;;;;1.85;0.75;;;;;;;9.16;100.00;98513.63;4889452;29;20499;-70
2022/09/27 04:37:43;;;;;;;2.28;0.75;;;;;;;9.09;100.00;98504.47;4891168;29;20055;-72
2022/09/27 04:40:10;;;;;;;2.28;1.02;;;;;;;9.09;100.00;98515.03;4888052;29;20093;-71
2022/09/27 04:42:37;;;;;;;0.90;0.90;;;;;;;8.97;100.00;98494.78;4896205;29;20059;-70
2022/09/27 04:45:04;;;;;;;1.63;0.75;;;;;;;9.12;100.00;98520.09;4891810;29;20045;-71
2022/09/27 04:47:30;;;;;;;2.40;0.68;;;;;;;9.07;100.00;98523.06;4883722;29;20072;-71
2022/09/27 04:49:57;;;;;;;4.55;1.10;;;;;;;8.98;100.00;98499.06;4885916;29;20062;-71
2022/09/27 04:52:23;;;;;;;1.35;0.90;;;;;;;9.28;100.00;98527.78;4891304;29;20056;-70
2022/09/27 04:54:50;;;;;;;1.73;0.98;;;;;;;9.39;100.00;98533.13;4889480;29;20427;-72
2022/09/27 04:57:17;;;;;;;1.13;0.95;;;;;;;9.47;100.00;98536.88;4892479;29;20052;-71
2022/09/27 04:59:43;;;;;;;2.20;1.15;;;;;;;9.52;100.00;98543.66;4893691;29;20416;-70
2022/09/27 05:02:10;;;;;;;1.30;0.98;;;;;;;9.53;100.00;98532.13;4874502;29;20057;-67
2022/09/27 05:04:37;;;;;;;1.23;1.00;;;;;;;9.53;100.00;98542.69;4895485;29;20053;-72
2022/09/27 05:07:03;;;;;;;2.60;1.02;;;;;;;9.55;100.00;98543.44;4886040;29;20060;-70
2022/09/27 05:09:30;;;;;;;3.97;2.00;;;;;;;9.59;100.00;98540.47;4887307;29;20084;-69
2022/09/27 05:11:57;;;;;;;1.88;1.05;;;;;;;9.54;100.00;98550.53;4888737;29;20396;-70
2022/09/27 05:14:23;;;;;;;1.80;1.00;;;;;;;9.40;100.00;98533.03;4882016;29;20044;-70
2022/09/27 05:16:55;;;;;;;1.52;0.90;;;;;;;9.43;100.00;98547.81;4890775;29;20057;-69
2022/09/27 05:19:22;;;;;;;4.88;0.80;;;;;;;9.42;100.00;98559.31;4891470;29;20247;-71
2022/09/27 05:21:49;;;;;;;2.15;0.75;;;;;;;9.15;100.00;98528.63;4885804;29;20518;-70
2022/09/27 05:24:16;;;;;;;1.25;0.80;;;;;;;9.27;100.00;98561.25;4886249;29;20148;-70
2022/09/27 05:26:44;;;;;;;2.75;0.80;;;;;;;9.27;100.00;98563.06;4887421;29;20061;-69
2022/09/27 05:29:10;;;;;;;3.85;1.00;;;;;;;9.29;100.00;98569.06;4891306;29;20400;-72
2022/09/27 05:31:37;;;;;;;2.90;0.98;;;;;;;9.32;100.00;98566.19;4889791;29;20140;-72
2022/09/27 05:34:09;;;;;;;1.90;0.75;;;;;;;9.33;100.00;98570.53;4887359;29;20052;-71
2022/09/27 05:36:36;;;;;;;3.03;0.85;;;;;;;9.33;100.00;98571.38;4882099;29;20053;-69
2022/09/27 05:39:03;;;;;;;3.03;0.60;;;;;;;9.24;100.00;98572.03;4889658;29;20398;-71
2022/09/27 05:41:31;;;;;;;1.20;0.60;;;;;;;9.06;100.00;98545.13;4883821;29;20061;-70
2022/09/27 05:43:58;;;;;;;1.20;0.70;;;;;;;9.29;100.00;98579.63;4891925;29;20067;-70
2022/09/27 05:46:25;;;;;;;0.82;0.63;;;;;;;9.28;100.00;98577.97;4886868;29;20068;-72
2022/09/27 05:48:51;;;;;;;2.95;0.60;;;;;;;9.10;100.00;98556.31;4882748;29;20135;-70
2022/09/27 05:51:19;;;;;;;0.90;0.52;;;;;;;9.27;100.00;98585.03;4889076;29;20056;-70
2022/09/27 05:53:46;;;;;;;2.03;0.80;;;;;;;9.07;100.00;98548.59;4894847;29;20090;-71
2022/09/27 05:56:13;;;;;;;0.80;0.50;;;;;;;9.36;100.00;98596.72;4890570;29;20128;-67
2022/09/27 05:58:39;;;;;;;1.05;0.50;;;;;;;9.38;100.00;98600.97;4888948;29;20472;-73
2022/09/27 06:01:07;;;;;;;1.98;0.80;;;;;;;9.36;100.00;98599.38;4888259;29;20052;-71
2022/09/27 06:03:34;;;;;;;0.80;0.68;;;;;;;9.33;100.00;98605.72;4894997;29;20578;-67
2022/09/27 06:06:06;;;;;;;1.83;0.90;;;;;;;9.41;100.00;98606.03;4888489;29;20519;-70
2022/09/27 06:08:34;;;;;;;1.58;0.68;;;;;;;9.57;100.00;98608.44;4891035;29;20062;-72
2022/09/27 06:11:03;;;;;;;1.20;0.65;;;;;;;9.69;100.00;98617.28;4882943;29;20048;-70
2022/09/27 06:13:30;;;;;;;2.78;0.70;;;;;;;9.62;100.00;98592.22;4889281;29;20519;-67
2022/09/27 06:15:58;;;;;;;1.63;0.73;;;;;;;9.87;100.00;98623.91;4886279;29;20088;-71
2022/09/27 06:18:24;;;;;;;3.13;1.00;;;;;;;9.74;100.00;98601.94;4887092;29;20586;-68
2022/09/27 06:20:51;;;;;;;4.80;1.00;;;;;;;9.81;100.00;98630.47;4889978;29;20135;-71
2022/09/27 06:23:21;;;;;;;3.17;0.90;;;;;;;9.79;100.00;98636.81;4881332;29;20049;-68
2022/09/27 06:25:49;;;;;;;1.67;1.05;;;;;;;9.79;100.00;98639.44;4892118;29;20124;-71
2022/09/27 06:28:16;;;;;;;1.90;1.00;;;;;;;9.78;100.00;98638.59;4885325;29;20177;-71
2022/09/27 06:30:45;;;;;;;1.10;1.00;;;;;;;9.80;100.00;98651.72;4890010;29;20144;-68
2022/09/27 06:33:16;;;;;;;2.38;1.00;;;;;;;9.87;100.00;98644.19;4891240;29;20496;-71
2022/09/27 06:35:44;;;;;;;1.80;1.20;;;;;;;9.88;100.00;98652.03;4883978;29;20427;-70
2022/09/27 06:38:15;;;;;;;3.95;1.05;;;;;;;9.69;100.00;98626.06;4889066;29;20053;-71
2022/09/27 06:40:46;;;;;;;3.22;1.05;;;;;;;9.83;100.00;98662.06;4885772;29;20052;-72
2022/09/27 06:43:15;;;;;;;3.25;1.27;;;;;;;9.92;100.00;98634.13;4891112;29;20454;-71
2022/09/27 06:45:42;;;;;;;2.28;1.10;;;;;;;10.00;100.00;98664.34;4889748;29;20048;-72
2022/09/27 06:48:11;;;;;;;2.03;1.10;;;;;;;10.03;100.00;98676.53;4883000;29;20049;-71
2022/09/27 06:50:40;;;;;;;1.95;1.15;;;;;;;9.96;100.00;98665.53;4890198;29;20112;-73
2022/09/27 06:53:09;;;;;;;1.83;1.10;;;;;;;9.80;100.00;98649.91;4885812;29;20091;-71
2022/09/27 06:55:36;;;;;;;1.90;1.13;;;;;;;9.92;100.00;98679.06;4885120;29;20089;-70
2022/09/27 07:00:52;;;;;;;4.45;1.20;;;;;;;9.92;100.00;98682.56;4891245;29;20052;-70
2022/09/27 07:03:21;;;;;;;3.20;1.20;;;;;;;9.94;100.00;98690.38;4894647;29;20423;-72
2022/09/27 07:06:00;;;;;;;3.00;1.02;;;;;;;9.95;100.00;98690.28;4887874;29;21090;-69
2022/09/27 07:08:27;;;;;;;3.75;1.00;;;;;;;9.93;100.00;98686.03;4887107;29;20504;-71
2022/09/27 07:10:59;;;;;;;2.50;0.88;;;;;;;9.87;100.00;98686.50;4884261;29;20068;-69
2022/09/27 07:13:28;;;;;;;3.38;1.00;;;;;;;9.94;100.00;98699.16;4893375;29;20041;-68
2022/09/27 07:15:55;;;;;;;1.70;1.10;;;;;;;9.96;100.00;98702.53;4886101;29;20056;-70
2022/09/27 07:18:22;;;;;;;1.95;1.10;;;;;;;9.86;100.00;98688.28;4885294;29;20132;-69
2022/09/27 07:20:49;;;;;;;2.20;1.25;;;;;;;9.95;100.00;98706.13;4889503;29;20128;-71
2022/09/27 07:23:16;;;;;;;3.58;0.98;;;;;;;9.87;100.00;98695.28;4881466;29;20045;-71
2022/09/27 07:25:42;;;;;;;2.28;1.17;;;;;;;9.98;100.00;98720.94;4892036;29;20064;-69
2022/09/27 07:28:14;;;;;;;0.88;0.70;;;;;;;10.00;100.00;98729.63;4883138;29;20536;-69
2022/09/27 07:30:47;;;;;;;2.85;1.00;;;;;;;10.02;100.00;98722.44;4892055;29;20068;-69
2022/09/27 07:33:13;;;;;;;2.92;0.52;;;;;;;10.03;100.00;98727.59;4897975;29;20074;-69
2022/09/27 07:35:42;;;;;;;4.05;0.73;;;;;;;10.05;100.00;98738.94;4893207;29;20066;-67
2022/09/27 07:38:12;;;;;;;0.90;0.60;;;;;;;10.08;100.00;98740.47;4892768;29;20041;-69
2022/09/27 07:40:40;;;;;;;1.55;0.60;;;;;;;10.01;100.00;98740.09;4889280;29;20076;-72
2022/09/27 07:43:08;;;;;;;1.55;0.60;;;;;;;10.01;100.00;98742.72;4891759;29;20500;-69
2022/09/27 07:45:35;;;;;;;2.35;1.20;;;;;;;10.01;100.00;98745.38;4891070;29;20151;-67
2022/09/27 07:48:06;;;;;;;1.17;0.50;;;;;;;10.03;100.00;98746.13;4893095;29;20068;-72
2022/09/27 07:50:33;;;;;;;3.00;1.00;;;;;;;10.03;100.00;98743.47;4883012;29;20053;-69
2022/09/27 07:53:00;;;;;;;3.85;1.25;;;;;;;10.03;100.00;98756.69;4890265;29;20128;-70
2022/09/27 07:55:26;;;;;;;1.40;0.82;;;;;;;10.12;100.00;98757.84;4893490;29;20168;-68
2022/09/27 07:58:01;;;;;;;1.95;0.70;;;;;;;10.17;100.00;98753.91;4891850;29;20112;-71
2022/09/27 08:00:28;;;;;;;3.95;0.98;;;;;;;10.35;100.00;98761.53;4885494;29;20061;-71
2022/09/27 08:02:55;;;;;;;1.90;0.57;;;;;;;10.42;99.73;98765.41;4892906;29;20048;-67
2022/09/27 08:05:21;;;;;;;1.15;0.50;;;;;;;10.44;97.68;98761.69;4895941;29;20138;-69
2022/09/27 08:07:53;;;;;;;2.08;0.60;;;;;;;10.47;97.73;98765.94;4896908;29;20155;-70
2022/09/27 08:10:19;;;;;;;1.13;0.60;;;;;;;10.70;99.09;98761.63;4888848;29;20057;-69
2022/09/27 08:12:46;;;;;;;3.20;0.88;;;;;;;10.88;94.68;98757.59;4894091;29;20059;-68
2022/09/27 08:15:13;;;;;;;2.08;0.77;;;;;;;11.04;97.48;98762.59;4887302;29;20041;-71
2022/09/27 08:17:39;;;;;;;2.45;0.50;;;;;;;11.00;96.01;98727.56;4892362;29;20055;-71
2022/09/27 08:20:06;;;;;;;1.58;0.60;;;;;;;11.32;92.96;98764.03;4890146;29;20059;-70
2022/09/27 08:22:32;;;;;;;2.42;0.45;;;;;;;10.98;92.19;98733.94;4893587;29;20075;-67
2022/09/27 08:24:59;;;;;;;2.53;0.60;;;;;;;11.04;94.26;98768.72;4900901;29;20055;-71
2022/09/27 08:27:25;;;;;;;2.72;1.00;;;;;;;11.15;94.79;98770.59;4892162;29;20135;-70
2022/09/27 08:29:52;;;;;;;1.33;0.45;;;;;;;11.15;91.59;98773.25;4893777;29;20052;-70
2022/09/27 08:32:19;;;;;;;2.60;0.70;;;;;;;11.06;91.99;98782.72;4887306;29;20052;-73
2022/09/27 08:34:49;;;;;;;4.95;0.80;;;;;;;11.14;91.96;98776.84;4889124;29;20057;-72
2022/09/27 08:37:15;;;;;;;0.55;0.40;;;;;;;10.97;91.26;98754.28;4889291;29;20408;-74
2022/09/27 08:39:42;;;;;;;4.05;0.70;;;;;;;11.01;92.08;98754.91;4894858;29;20135;-71
2022/09/27 08:42:22;;;;;;;0.45;0.45;;;;;;;11.31;91.88;98781.72;4893637;29;20144;-71
2022/09/27 08:45:21;;;;;;;3.00;0.90;;;;;;;11.53;90.21;98788.88;4886262;29;20057;-75
2022/09/27 08:47:56;;;;;;;6.20;0.90;;;;;;;11.62;90.65;98782.06;4886755;29;20143;-73
2022/09/27 08:50:42;;;;;;;1.58;0.80;;;;;;;11.65;90.40;98797.72;4893723;29;20063;-74
2022/09/27 08:53:24;;;;;;;1.92;0.40;;;;;;;11.56;88.76;98793.97;4888833;29;20052;-73
2022/09/27 08:55:54;;;;;;;3.03;0.50;;;;;;;11.44;87.10;98792.25;4894076;29;20582;-71
2022/09/27 08:58:45;;;;;;;2.13;0.50;;;;;;;11.39;88.15;98797.88;4891262;29;20048;-70
2022/09/27 09:01:14;;;;;;;;;;;;;;;11.54;86.00;98802.03;4888264;29;20045;-74
2022/09/27 09:03:54;;;;;;;2.30;0.60;;;;;;;11.57;84.55;98804.44;4896411;29;19923;-69
2022/09/27 09:06:25;;;;;;;2.13;0.90;;;;;;;11.78;84.82;98801.16;4885006;29;20052;-71
2022/09/27 09:09:00;;;;;;;3.33;0.70;;;;;;;11.93;84.27;98802.63;4887675;29;20057;-73
2022/09/27 09:14:53;;;;;;;2.67;0.63;;;;;;;12.00;79.72;98801.16;4885430;29;20045;-74
2022/09/27 09:17:23;;;;;;;2.00;0.50;;;;;;;12.01;79.33;98807.31;4890298;29;20049;-72
2022/09/27 09:20:28;;;;;;;0.55;0.40;;;;;;;12.22;78.68;98809.13;4887734;29;20048;-72
2022/09/27 09:23:13;;;;;;;1.90;0.70;;;;;;;12.27;76.47;98801.66;4863311;29;20095;-75
2022/09/27 09:25:55;;;;;;;2.33;0.70;;;;;;;12.31;76.86;98804.91;4872370;29;20616;-75
2022/09/27 09:28:27;;;;;;;1.17;0.50;;;;;;;12.46;76.42;98785.09;4872058;29;20061;-73
2022/09/27 09:31:00;;;;;;;2.30;0.85;;;;;;;12.64;75.34;98801.38;4863955;29;20060;-72
2022/09/27 09:33:36;;;;;;;2.00;0.70;;;;;;;12.69;75.55;98793.88;4871993;29;20080;-70
2022/09/27 09:36:24;;;;;;;5.65;0.90;;;;;;;12.77;75.62;98802.06;4864065;29;20415;-73
2022/09/27 09:38:56;;;;;;;2.72;0.70;;;;;;;13.03;74.32;98807.06;4872824;29;20053;-70
2022/09/27 09:41:38;;;;;;;3.30;0.98;;;;;;;13.21;73.45;98798.47;4869236;29;20128;-72
2022/09/27 09:44:18;;;;;;;2.17;0.77;;;;;;;13.17;71.02;98789.03;4871354;29;20053;-73
2022/09/27 09:46:48;;;;;;;3.83;0.73;;;;;;;13.13;71.42;98795.53;4875019;29;20049;-70
2022/09/27 09:49:38;;;;;;;1.58;0.70;;;;;;;12.90;71.93;98794.81;4871193;29;20076;-72
2022/09/27 09:52:10;;;;;;;3.08;0.55;;;;;;;12.86;72.90;98792.50;4868381;29;20053;-70
2022/09/27 09:54:49;;;;;;;2.80;0.75;;;;;;;12.91;74.15;98787.66;4871065;29;20112;-71
2022/09/27 09:57:26;;;;;;;3.67;1.30;;;;;;;13.03;74.40;98778.69;4865912;29;20324;-71
2022/09/27 10:00:11;;;;;;;4.18;0.98;;;;;;;13.14;71.57;98780.44;4874083;29;20063;-76
2022/09/27 10:02:41;;;;;;;5.22;1.20;;;;;;;13.15;70.86;98782.16;4870543;29;20090;-70
2022/09/27 10:05:14;;;;;;;2.83;0.75;;;;;;;13.34;68.68;98769.03;4870322;29;20076;-75
2022/09/27 10:07:41;;;;;;;1.88;0.60;;;;;;;13.57;67.49;98781.22;4868974;29;20499;-71
2022/09/27 10:10:13;;;;;;;1.70;0.50;;;;;;;13.51;66.68;98760.47;4867613;29;20045;-75
2022/09/27 10:12:40;;;;;;;1.23;0.50;;;;;;;13.90;67.06;98774.00;4859098;29;20055;-74
2022/09/27 10:15:12;;;;;;;1.73;0.80;;;;;;;13.85;65.35;98776.22;4865804;29;20100;-74
2022/09/27 10:17:43;;;;;;;1.40;0.60;;;;;;;13.96;64.54;98768.16;4864478;29;20568;-72
2022/09/27 10:20:30;;;;;;;2.00;0.57;;;;;;;13.51;64.33;98751.66;4874926;29;20056;-75
2022/09/27 10:23:03;;;;;;;1.88;0.50;;;;;;;13.50;65.01;98777.41;4883934;29;20083;-72
2022/09/27 10:25:57;;;;;;;1.20;0.60;;;;;;;13.44;65.83;98788.53;4889088;29;20361;-75
2022/09/27 10:28:44;;;;;;;0.38;0.30;;;;;;;13.29;65.58;98773.88;4892221;29;20124;-70
2022/09/27 10:31:13;;;;;;;1.02;0.65;;;;;;;13.11;65.72;98749.66;4889999;29;20053;-72
2022/09/27 10:34:04;;;;;;;2.63;0.60;;;;;;;13.21;65.71;98750.63;4884479;29;20491;-73
2022/09/27 10:36:33;;;;;;;1.52;0.60;;;;;;;13.27;65.13;98765.19;4894309;29;20144;-74
2022/09/27 10:39:03;;;;;;;1.08;0.40;;;;;;;13.31;64.47;98774.59;4885543;29;20868;-73
2022/09/27 10:41:40;;;;;;;1.60;0.70;;;;;;;13.33;65.82;98770.00;4894596;29;20236;-74
2022/09/27 10:44:16;;;;;;;0.90;0.40;;;;;;;13.38;65.75;98762.47;4891035;29;20049;-73
2022/09/27 10:46:48;;;;;;;1.98;0.40;;;;;;;13.17;66.12;98764.28;4892170;29;20045;-74
2022/09/27 10:49:14;;;;;;;1.63;0.60;;;;;;;12.90;67.24;98739.00;4886503;29;20056;-75
2022/09/27 10:51:43;;;;;;;2.95;0.52;;;;;;;12.68;69.04;98736.41;4866501;29;20076;-73
2022/09/27 10:54:22;;;;;;;0.25;0.25;;;;;;;12.62;69.56;98758.16;4885869;29;20048;-70
2022/09/27 10:57:04;;;;;;;0.70;0.40;;;;;;;12.39;70.00;98762.69;4889313;29;20079;-74
2022/09/27 10:59:38;;;;;;;1.45;0.43;;;;;;;12.43;72.28;98763.28;4888619;29;20139;-74
2022/09/27 11:02:20;;;;;;;1.50;0.43;;;;;;;12.52;71.92;98762.53;4886449;29;20057;-76
2022/09/27 11:05:13;;;;;;;1.83;0.50;;;;;;;12.68;70.98;98759.47;4899926;29;20052;-69
2022/09/27 11:07:55;;;;;;;0.82;0.50;;;;;;;12.90;68.90;98760.25;4881165;29;20416;-71
2022/09/27 11:10:30;;;;;;;0.57;0.30;;;;;;;13.02;68.33;98758.41;4888161;29;20087;-70
2022/09/27 11:13:05;;;;;;;0.73;0.50;;;;;;;13.30;66.32;98759.63;4894475;29;20080;-70
2022/09/27 11:15:56;;;;;;;1.48;0.55;;;;;;;13.46;65.76;98749.38;4886441;29;20056;-73
2022/09/27 11:18:29;;;;;;;0.80;0.30;;;;;;;13.56;64.70;98754.75;4850956;29;20393;-70
2022/09/27 11:21:11;;;;;;;1.42;0.57;;;;;;;13.50;63.18;98744.66;4867929;29;20136;-75
2022/09/27 11:24:10;;;;;;;1.90;0.52;;;;;;;13.48;61.84;98751.91;4883393;29;20060;-73
2022/09/27 11:26:56;;;;;;;1.30;0.60;;;;;;;13.38;62.31;98740.38;4884317;29;20059;-73
2022/09/27 11:29:44;;;;;;;3.08;0.60;;;;;;;13.33;63.15;98740.75;4882931;29;20500;-71
2022/09/27 11:32:31;;;;;;;1.77;0.80;;;;;;;13.28;62.79;98756.25;4889782;29;20148;-74
2022/09/27 11:35:32;;;;;;;2.38;0.43;;;;;;;13.18;61.14;98737.59;4888107;29;20059;-70
2022/09/27 11:38:22;;;;;;;0.95;0.68;;;;;;;13.29;59.68;98734.00;4883992;29;20141;-70
2022/09/27 11:41:35;;;;;;;;;;;;;;;13.22;60.29;98738.16;4881909;29;20507;-74
2022/09/27 11:44:04;;;;;;;1.23;0.60;;;;;;;13.26;60.30;98735.09;4886527;29;19931;-73
2022/09/27 11:46:38;;;;;;;1.75;0.45;;;;;;;13.16;58.33;98733.34;4890140;29;20160;-74
2022/09/27 11:49:20;;;;;;;1.67;0.50;;;;;;;13.11;60.01;98724.88;4885909;29;20140;-72
2022/09/27 11:52:09;;;;;;;2.47;0.50;;;;;;;13.19;59.80;98725.97;4883410;29;20049;-72
2022/09/27 11:54:38;;;;;;;1.48;0.50;;;;;;;13.19;59.73;98720.66;4881113;29;20485;-74
2022/09/27 11:57:17;;;;;;;1.40;0.60;;;;;;;13.30;60.92;98725.06;4892346;29;20516;-72
2022/09/27 12:00:13;;;;;;;1.95;0.90;;;;;;;13.41;60.33;98721.50;4887972;29;20108;-69
2022/09/27 12:03:05;;;;;;;1.45;0.70;;;;;;;13.70;60.11;98726.00;4878717;29;20057;-72
2022/09/27 12:06:10;;;;;;;1.95;1.00;;;;;;;13.69;58.41;98715.50;4890322;29;20049;-70
2022/09/27 12:09:05;;;;;;;3.35;0.70;;;;;;;13.82;58.15;98717.94;4887686;29;20057;-71